Impacts METAR Board
IDs:

KMSY - New Orleans/Armstron, LA, US

Updated at: 1700 UTC 23 Jan 2019
Potential Impact None Slight Moderate High
Time 23/05Z 23/06Z 23/07Z 23/08Z 23/09Z 23/10Z 23/11Z 23/12Z 23/13Z 23/14Z 23/15Z 23/16Z 23/17Z
Temp65 65 63 63 60 63 64 68 67 67 67 70 70
Dewpt60 60 60 61 59 62 63 66 66 66 67 68 67
Altim30.06 30.04 30.03 30.01 29.99 29.98 29.97 29.95 29.93 29.90 29.89 29.88 29.86
VIS10 10 10 9 9 7 7 7 7 1 2 7 10
CIG50 75 70 70 -- 80 70 55 35 17 18 37 70
CoverOVCBKNBKNBKNSCTOVCBKNOVCBKNOVCOVCBKNOVC
FltCatVFRVFRVFRVFRVFRVFRVFRVFRVFRIFRIFRVFRVFR
WX---------------RA--RA BR-RA---RA
WDir13014031090120140140150160200190170180
WSpd10 7 3 4 6 4 5 14 6 6 7 11 13
WGst-- -- -- -- -- -- -- 17 -- -- -- 18 23
Raw hourly METARs
KMSY 230453Z 13010KT 10SM BKN050 OVC070 18/16 A3006 RMK AO2 SLP182 T01830156
KMSY 230553Z 14007KT 10SM FEW041 SCT050 BKN075 18/16 A3004 RMK AO2 SLP175 T01830156 10200 20178 402330122 58008
KMSY 230653Z 31003KT 10SM BKN070 17/16 A3003 RMK AO2 SLP171 T01720156
KMSY 230753Z 09004KT 9SM FEW046 SCT055 BKN070 17/16 A3001 RMK AO2 SLP165 T01720161
KMSY 230853Z 12006KT 9SM SCT070 16/15 A2999 RMK AO2 SLP158 T01560150 58016
KMSY 230953Z 14004KT 7SM OVC080 17/17 A2998 RMK AO2 SLP155 T01720167
KMSY 231053Z 14005KT 7SM BKN070 BKN100 18/17 A2997 RMK AO2 SLP150 T01780172
KMSY 231153Z 15014G17KT 7SM -RA SCT029 BKN055 OVC120 20/19 A2995 RMK AO2 RAB00 SLP145 P0000 60000 T02000189 10200 20150 58014
KMSY 231253Z 16006KT 7SM FEW022 BKN035 BKN110 19/19 A2993 RMK AO2 RAE07 SLP137 P0004 T01940189
KMSY 231405Z 20006KT 1SM RA BR SCT005 BKN017 OVC027 19/19 A2990 RMK AO2 P0006 T01940189 RVRNO
KMSY 231453Z 19007KT 2SM -RA BKN018 BKN024 OVC036 19/19 A2989 RMK AO2 LTG DSNT W SLP125 P0120 60125 T01940194 56011
KMSY 231553Z 17011G18KT 7SM SCT026 BKN037 BKN048 21/20 A2988 RMK AO2 LTG DSNT S RAE06B09E39 SLP120 P0001 T02110200
KMSY 231653Z COR 18013G23KT 10SM -RA FEW032CB SCT050 OVC070 21/19 A2986 RMK AO2 PK WND 17026/1604 LTG DSNT ALQDS RAB33 SLP113 CB NW MOV N P0000 T02110194



Page loaded:  17:27 UTC  |   09:27 AM Pacific  |   10:27 AM Mountain  |   11:27 AM Central  |   12:27 PM Eastern

 

ADVISORIES

FORECASTS

FORECASTS

OBSERVATIONS

USER TOOLS

ABOUT US